sensor_id;sensor_type;location;lat;lon;timestamp;temperature;humidity
24618;DHT22;12762;51.730;5.356;2022-12-18T00:01:25;-3.00;83.20
24618;DHT22;12762;51.730;5.356;2022-12-18T00:03:54;-3.00;83.20
24618;DHT22;12762;51.730;5.356;2022-12-18T00:06:25;-3.00;83.40
24618;DHT22;12762;51.730;5.356;2022-12-18T00:08:52;-3.00;83.30
24618;DHT22;12762;51.730;5.356;2022-12-18T00:11:22;-3.10;83.10
24618;DHT22;12762;51.730;5.356;2022-12-18T00:13:49;-3.10;83.10
24618;DHT22;12762;51.730;5.356;2022-12-18T00:16:20;-3.10;83.10
24618;DHT22;12762;51.730;5.356;2022-12-18T00:18:49;-3.10;83.10
24618;DHT22;12762;51.730;5.356;2022-12-18T00:21:16;-3.20;83.10
24618;DHT22;12762;51.730;5.356;2022-12-18T00:23:47;-3.20;83.10
24618;DHT22;12762;51.730;5.356;2022-12-18T00:26:22;-3.30;83.10
24618;DHT22;12762;51.730;5.356;2022-12-18T00:28:49;-3.30;83.10
24618;DHT22;12762;51.730;5.356;2022-12-18T00:31:19;-3.30;83.10
24618;DHT22;12762;51.730;5.356;2022-12-18T00:33:49;-3.30;83.10
24618;DHT22;12762;51.730;5.356;2022-12-18T00:36:25;-3.30;83.10
24618;DHT22;12762;51.730;5.356;2022-12-18T00:38:59;-3.40;83.00
24618;DHT22;12762;51.730;5.356;2022-12-18T00:41:26;-3.40;83.00
24618;DHT22;12762;51.730;5.356;2022-12-18T00:44:15;-3.40;83.00
24618;DHT22;12762;51.730;5.356;2022-12-18T00:46:43;-3.50;82.90
24618;DHT22;12762;51.730;5.356;2022-12-18T00:49:11;-3.50;82.90
24618;DHT22;12762;51.730;5.356;2022-12-18T00:51:37;-3.50;82.90
24618;DHT22;12762;51.730;5.356;2022-12-18T00:54:04;-3.50;82.90
24618;DHT22;12762;51.730;5.356;2022-12-18T00:56:31;-3.60;83.00
24618;DHT22;12762;51.730;5.356;2022-12-18T00:58:58;-3.60;82.90
24618;DHT22;12762;51.730;5.356;2022-12-18T01:01:30;-3.60;83.00
24618;DHT22;12762;51.730;5.356;2022-12-18T01:04:00;-3.60;83.00
24618;DHT22;12762;51.730;5.356;2022-12-18T01:06:28;-3.70;83.60
24618;DHT22;12762;51.730;5.356;2022-12-18T01:08:55;-3.70;82.80
24618;DHT22;12762;51.730;5.356;2022-12-18T01:11:22;-3.70;82.80
24618;DHT22;12762;51.730;5.356;2022-12-18T01:13:49;-3.70;82.80
24618;DHT22;12762;51.730;5.356;2022-12-18T01:16:17;-3.80;82.70
24618;DHT22;12762;51.730;5.356;2022-12-18T01:18:45;-3.80;82.80
24618;DHT22;12762;51.730;5.356;2022-12-18T01:21:15;-3.80;82.80
24618;DHT22;12762;51.730;5.356;2022-12-18T01:23:42;-3.80;82.80
24618;DHT22;12762;51.730;5.356;2022-12-18T01:26:14;-3.80;82.90
24618;DHT22;12762;51.730;5.356;2022-12-18T01:28:41;-3.90;82.70
24618;DHT22;12762;51.730;5.356;2022-12-18T01:31:31;-3.90;82.70
24618;DHT22;12762;51.730;5.356;2022-12-18T01:34:01;-3.90;82.70
24618;DHT22;12762;51.730;5.356;2022-12-18T01:36:37;-3.90;82.70
24618;DHT22;12762;51.730;5.356;2022-12-18T01:39:06;-3.90;82.70
24618;DHT22;12762;51.730;5.356;2022-12-18T01:41:34;-4.00;82.70
24618;DHT22;12762;51.730;5.356;2022-12-18T01:44:53;-4.00;82.70
24618;DHT22;12762;51.730;5.356;2022-12-18T01:47:34;-4.00;82.70
24618;DHT22;12762;51.730;5.356;2022-12-18T01:50:11;-4.00;82.70
24618;DHT22;12762;51.730;5.356;2022-12-18T01:52:42;-4.00;82.70
24618;DHT22;12762;51.730;5.356;2022-12-18T01:55:11;-4.10;82.70
24618;DHT22;12762;51.730;5.356;2022-12-18T01:57:39;-4.10;82.70
24618;DHT22;12762;51.730;5.356;2022-12-18T02:00:19;-4.10;82.70
24618;DHT22;12762;51.730;5.356;2022-12-18T02:02:47;-4.10;82.70
24618;DHT22;12762;51.730;5.356;2022-12-18T02:08:10;-4.10;82.70
24618;DHT22;12762;51.730;5.356;2022-12-18T02:10:43;-4.10;82.70
24618;DHT22;12762;51.730;5.356;2022-12-18T02:13:13;-4.10;82.60
24618;DHT22;12762;51.730;5.356;2022-12-18T02:18:20;-4.10;82.60
24618;DHT22;12762;51.730;5.356;2022-12-18T02:21:08;-4.20;82.60
24618;DHT22;12762;51.730;5.356;2022-12-18T02:26:37;-4.20;82.60
24618;DHT22;12762;51.730;5.356;2022-12-18T02:29:18;-4.20;82.60
24618;DHT22;12762;51.730;5.356;2022-12-18T02:31:53;-4.20;82.60
24618;DHT22;12762;51.730;5.356;2022-12-18T02:34:25;-4.20;82.60
24618;DHT22;12762;51.730;5.356;2022-12-18T02:36:53;-4.20;82.60
24618;DHT22;12762;51.730;5.356;2022-12-18T02:39:22;-4.20;82.50
24618;DHT22;12762;51.730;5.356;2022-12-18T02:41:50;-4.20;82.50
24618;DHT22;12762;51.730;5.356;2022-12-18T02:44:17;-4.20;82.40
24618;DHT22;12762;51.730;5.356;2022-12-18T02:46:49;-4.20;82.40
24618;DHT22;12762;51.730;5.356;2022-12-18T02:49:36;-4.30;82.30
24618;DHT22;12762;51.730;5.356;2022-12-18T02:58:20;-4.30;82.40
24618;DHT22;12762;51.730;5.356;2022-12-18T03:04:30;-4.40;82.30
24618;DHT22;12762;51.730;5.356;2022-12-18T03:07:03;-4.40;82.30
24618;DHT22;12762;51.730;5.356;2022-12-18T03:09:41;-4.50;82.30
24618;DHT22;12762;51.730;5.356;2022-12-18T03:12:31;-4.50;82.20
24618;DHT22;12762;51.730;5.356;2022-12-18T03:15:04;-4.50;82.20
24618;DHT22;12762;51.730;5.356;2022-12-18T03:17:34;-4.50;82.10
24618;DHT22;12762;51.730;5.356;2022-12-18T03:20:12;-4.50;82.10
24618;DHT22;12762;51.730;5.356;2022-12-18T03:22:42;-4.50;82.10
24618;DHT22;12762;51.730;5.356;2022-12-18T03:25:13;-4.60;82.10
24618;DHT22;12762;51.730;5.356;2022-12-18T03:27:46;-4.60;82.10
24618;DHT22;12762;51.730;5.356;2022-12-18T03:30:15;-4.60;82.10
24618;DHT22;12762;51.730;5.356;2022-12-18T03:33:08;-4.60;82.10
24618;DHT22;12762;51.730;5.356;2022-12-18T03:35:40;-4.60;82.10
24618;DHT22;12762;51.730;5.356;2022-12-18T03:38:09;-4.60;82.20
24618;DHT22;12762;51.730;5.356;2022-12-18T03:46:41;-4.70;82.00
24618;DHT22;12762;51.730;5.356;2022-12-18T03:49:38;-4.70;82.10
24618;DHT22;12762;51.730;5.356;2022-12-18T03:52:12;-4.70;82.00
24618;DHT22;12762;51.730;5.356;2022-12-18T03:54:41;-4.70;82.00
24618;DHT22;12762;51.730;5.356;2022-12-18T03:57:21;-4.70;82.00
24618;DHT22;12762;51.730;5.356;2022-12-18T03:59:53;-4.70;82.10
24618;DHT22;12762;51.730;5.356;2022-12-18T04:02:22;-4.70;82.10
24618;DHT22;12762;51.730;5.356;2022-12-18T04:04:52;-4.70;82.10
24618;DHT22;12762;51.730;5.356;2022-12-18T04:07:23;-4.80;82.00
24618;DHT22;12762;51.730;5.356;2022-12-18T04:09:54;-4.70;82.10
24618;DHT22;12762;51.730;5.356;2022-12-18T04:12:26;-4.80;81.90
24618;DHT22;12762;51.730;5.356;2022-12-18T04:14:53;-4.80;81.90
24618;DHT22;12762;51.730;5.356;2022-12-18T04:17:19;-4.80;81.90
24618;DHT22;12762;51.730;5.356;2022-12-18T04:19:46;-4.80;81.90
24618;DHT22;12762;51.730;5.356;2022-12-18T04:22:13;-4.70;82.00
24618;DHT22;12762;51.730;5.356;2022-12-18T04:24:40;-4.80;81.90
24618;DHT22;12762;51.730;5.356;2022-12-18T04:27:10;-4.70;82.00
24618;DHT22;12762;51.730;5.356;2022-12-18T04:29:39;-4.70;81.90
24618;DHT22;12762;51.730;5.356;2022-12-18T04:32:07;-4.70;81.90
24618;DHT22;12762;51.730;5.356;2022-12-18T04:34:34;-4.70;81.90
24618;DHT22;12762;51.730;5.356;2022-12-18T04:37:01;-4.80;81.80
24618;DHT22;12762;51.730;5.356;2022-12-18T04:39:28;-4.70;81.90
24618;DHT22;12762;51.730;5.356;2022-12-18T04:41:54;-4.80;81.80
24618;DHT22;12762;51.730;5.356;2022-12-18T04:44:21;-4.80;81.80
24618;DHT22;12762;51.730;5.356;2022-12-18T04:46:51;-4.80;81.80
24618;DHT22;12762;51.730;5.356;2022-12-18T04:49:18;-4.80;81.70
24618;DHT22;12762;51.730;5.356;2022-12-18T04:51:45;-4.80;81.80
24618;DHT22;12762;51.730;5.356;2022-12-18T04:54:12;-4.80;81.70
24618;DHT22;12762;51.730;5.356;2022-12-18T04:56:39;-4.80;81.80
24618;DHT22;12762;51.730;5.356;2022-12-18T04:59:06;-4.80;81.70
24618;DHT22;12762;51.730;5.356;2022-12-18T05:01:33;-4.80;81.80
24618;DHT22;12762;51.730;5.356;2022-12-18T05:04:01;-4.80;81.70
24618;DHT22;12762;51.730;5.356;2022-12-18T05:06:28;-4.80;81.80
24618;DHT22;12762;51.730;5.356;2022-12-18T05:08:58;-4.80;81.70
24618;DHT22;12762;51.730;5.356;2022-12-18T05:11:25;-4.80;81.70
24618;DHT22;12762;51.730;5.356;2022-12-18T05:13:51;-4.80;81.80
24618;DHT22;12762;51.730;5.356;2022-12-18T05:16:18;-4.80;81.80
24618;DHT22;12762;51.730;5.356;2022-12-18T05:18:47;-4.80;81.70
24618;DHT22;12762;51.730;5.356;2022-12-18T05:21:14;-4.80;81.70
24618;DHT22;12762;51.730;5.356;2022-12-18T05:23:40;-4.80;81.70
24618;DHT22;12762;51.730;5.356;2022-12-18T05:26:08;-4.80;81.70
24618;DHT22;12762;51.730;5.356;2022-12-18T05:28:36;-4.90;81.60
24618;DHT22;12762;51.730;5.356;2022-12-18T05:31:04;-4.80;81.70
24618;DHT22;12762;51.730;5.356;2022-12-18T05:33:33;-4.90;81.50
24618;DHT22;12762;51.730;5.356;2022-12-18T05:36:02;-4.90;81.50
24618;DHT22;12762;51.730;5.356;2022-12-18T05:38:30;-4.90;81.50
24618;DHT22;12762;51.730;5.356;2022-12-18T05:40:57;-4.90;81.60
24618;DHT22;12762;51.730;5.356;2022-12-18T05:43:25;-4.90;81.50
24618;DHT22;12762;51.730;5.356;2022-12-18T05:45:56;-4.90;81.50
24618;DHT22;12762;51.730;5.356;2022-12-18T05:48:23;-4.90;81.60
24618;DHT22;12762;51.730;5.356;2022-12-18T05:50:51;-4.90;81.60
24618;DHT22;12762;51.730;5.356;2022-12-18T05:53:19;-4.90;81.60
24618;DHT22;12762;51.730;5.356;2022-12-18T05:55:47;-5.00;81.50
24618;DHT22;12762;51.730;5.356;2022-12-18T05:58:14;-4.90;81.60
24618;DHT22;12762;51.730;5.356;2022-12-18T06:00:44;-5.00;81.50
24618;DHT22;12762;51.730;5.356;2022-12-18T06:03:15;-5.00;81.50
24618;DHT22;12762;51.730;5.356;2022-12-18T06:05:44;-4.90;81.60
24618;DHT22;12762;51.730;5.356;2022-12-18T06:08:12;-5.00;82.30
24618;DHT22;12762;51.730;5.356;2022-12-18T06:10:40;-5.00;81.40
24618;DHT22;12762;51.730;5.356;2022-12-18T06:13:07;-5.00;81.40
24618;DHT22;12762;51.730;5.356;2022-12-18T06:15:36;-5.00;81.40
24618;DHT22;12762;51.730;5.356;2022-12-18T06:18:04;-5.00;81.50
24618;DHT22;12762;51.730;5.356;2022-12-18T06:20:31;-5.00;81.50
24618;DHT22;12762;51.730;5.356;2022-12-18T06:22:59;-5.00;81.40
24618;DHT22;12762;51.730;5.356;2022-12-18T06:25:26;-5.00;81.50
24618;DHT22;12762;51.730;5.356;2022-12-18T06:27:53;-5.00;81.40
24618;DHT22;12762;51.730;5.356;2022-12-18T06:30:23;-5.10;81.40
24618;DHT22;12762;51.730;5.356;2022-12-18T06:32:50;-5.00;81.50
24618;DHT22;12762;51.730;5.356;2022-12-18T06:35:22;-5.10;81.40
24618;DHT22;12762;51.730;5.356;2022-12-18T06:37:49;-5.10;81.40
24618;DHT22;12762;51.730;5.356;2022-12-18T06:40:16;-5.10;81.50
24618;DHT22;12762;51.730;5.356;2022-12-18T06:42:46;-5.10;81.40
24618;DHT22;12762;51.730;5.356;2022-12-18T06:45:13;-5.10;81.40
24618;DHT22;12762;51.730;5.356;2022-12-18T06:47:40;-5.10;81.40
24618;DHT22;12762;51.730;5.356;2022-12-18T06:50:07;-5.10;81.40
24618;DHT22;12762;51.730;5.356;2022-12-18T06:52:34;-5.10;81.40
24618;DHT22;12762;51.730;5.356;2022-12-18T06:55:01;-5.10;81.40
24618;DHT22;12762;51.730;5.356;2022-12-18T06:57:30;-5.10;81.40
24618;DHT22;12762;51.730;5.356;2022-12-18T06:59:57;-5.10;81.40
24618;DHT22;12762;51.730;5.356;2022-12-18T07:02:24;-5.10;81.30
24618;DHT22;12762;51.730;5.356;2022-12-18T07:04:51;-5.10;81.40
24618;DHT22;12762;51.730;5.356;2022-12-18T07:07:18;-5.10;81.40
24618;DHT22;12762;51.730;5.356;2022-12-18T07:09:45;-5.10;81.40
24618;DHT22;12762;51.730;5.356;2022-12-18T07:12:11;-5.10;82.20
24618;DHT22;12762;51.730;5.356;2022-12-18T07:14:40;-5.10;81.40
24618;DHT22;12762;51.730;5.356;2022-12-18T07:17:06;-5.10;81.40
24618;DHT22;12762;51.730;5.356;2022-12-18T07:19:34;-5.10;81.40
24618;DHT22;12762;51.730;5.356;2022-12-18T07:22:01;-5.10;81.40
24618;DHT22;12762;51.730;5.356;2022-12-18T07:24:28;-5.10;81.40
24618;DHT22;12762;51.730;5.356;2022-12-18T07:26:55;-5.10;81.40
24618;DHT22;12762;51.730;5.356;2022-12-18T07:29:21;-5.10;81.40
24618;DHT22;12762;51.730;5.356;2022-12-18T07:31:48;-5.10;81.40
24618;DHT22;12762;51.730;5.356;2022-12-18T07:34:21;-5.10;81.40
24618;DHT22;12762;51.730;5.356;2022-12-18T07:36:48;-5.10;81.40
24618;DHT22;12762;51.730;5.356;2022-12-18T07:39:15;-5.00;81.40
24618;DHT22;12762;51.730;5.356;2022-12-18T07:41:42;-5.00;81.40
24618;DHT22;12762;51.730;5.356;2022-12-18T07:44:13;-5.00;81.40
24618;DHT22;12762;51.730;5.356;2022-12-18T07:46:39;-5.00;81.40
24618;DHT22;12762;51.730;5.356;2022-12-18T07:49:06;-5.00;81.40
24618;DHT22;12762;51.730;5.356;2022-12-18T07:51:33;-5.00;81.40
24618;DHT22;12762;51.730;5.356;2022-12-18T07:54:00;-5.00;81.40
24618;DHT22;12762;51.730;5.356;2022-12-18T07:56:29;-4.90;81.50
24618;DHT22;12762;51.730;5.356;2022-12-18T07:58:58;-4.90;81.40
24618;DHT22;12762;51.730;5.356;2022-12-18T08:01:25;-4.90;81.50
24618;DHT22;12762;51.730;5.356;2022-12-18T08:03:52;-4.80;81.50
24618;DHT22;12762;51.730;5.356;2022-12-18T08:06:19;-4.80;81.50
24618;DHT22;12762;51.730;5.356;2022-12-18T08:08:53;-4.80;81.50
24618;DHT22;12762;51.730;5.356;2022-12-18T08:11:21;-4.70;81.70
24618;DHT22;12762;51.730;5.356;2022-12-18T08:13:50;-4.70;81.60
24618;DHT22;12762;51.730;5.356;2022-12-18T08:16:18;-4.60;81.70
24618;DHT22;12762;51.730;5.356;2022-12-18T08:18:46;-4.60;81.60
24618;DHT22;12762;51.730;5.356;2022-12-18T08:21:19;-4.50;81.60
24618;DHT22;12762;51.730;5.356;2022-12-18T08:23:49;-4.50;81.60
24618;DHT22;12762;51.730;5.356;2022-12-18T08:26:17;-4.40;81.70
24618;DHT22;12762;51.730;5.356;2022-12-18T08:28:45;-4.40;81.60
24618;DHT22;12762;51.730;5.356;2022-12-18T08:31:12;-4.30;81.70
24618;DHT22;12762;51.730;5.356;2022-12-18T08:33:40;-4.30;81.60
24618;DHT22;12762;51.730;5.356;2022-12-18T08:36:08;-4.20;81.70
24618;DHT22;12762;51.730;5.356;2022-12-18T08:38:37;-4.20;81.60
24618;DHT22;12762;51.730;5.356;2022-12-18T08:41:07;-4.10;81.60
24618;DHT22;12762;51.730;5.356;2022-12-18T08:43:38;-4.10;81.60
24618;DHT22;12762;51.730;5.356;2022-12-18T08:46:25;-4.00;81.70
24618;DHT22;12762;51.730;5.356;2022-12-18T08:48:54;-4.00;81.70
24618;DHT22;12762;51.730;5.356;2022-12-18T08:51:22;-4.00;81.70
24618;DHT22;12762;51.730;5.356;2022-12-18T08:53:51;-3.90;81.60
24618;DHT22;12762;51.730;5.356;2022-12-18T08:56:24;-3.90;81.60
24618;DHT22;12762;51.730;5.356;2022-12-18T08:58:52;-3.80;81.60
24618;DHT22;12762;51.730;5.356;2022-12-18T09:01:20;-3.80;81.60
24618;DHT22;12762;51.730;5.356;2022-12-18T09:03:50;-3.70;81.70
24618;DHT22;12762;51.730;5.356;2022-12-18T09:06:21;-3.60;81.80
24618;DHT22;12762;51.730;5.356;2022-12-18T09:08:48;-3.60;81.60
24618;DHT22;12762;51.730;5.356;2022-12-18T09:11:20;-3.50;81.70
24618;DHT22;12762;51.730;5.356;2022-12-18T09:13:48;-3.50;81.70
24618;DHT22;12762;51.730;5.356;2022-12-18T09:16:16;-3.50;81.60
24618;DHT22;12762;51.730;5.356;2022-12-18T09:18:50;-3.40;81.60
24618;DHT22;12762;51.730;5.356;2022-12-18T09:21:19;-3.40;81.50
24618;DHT22;12762;51.730;5.356;2022-12-18T09:23:53;-3.30;81.60
24618;DHT22;12762;51.730;5.356;2022-12-18T09:26:21;-3.20;81.70
24618;DHT22;12762;51.730;5.356;2022-12-18T09:28:48;-3.20;81.60
24618;DHT22;12762;51.730;5.356;2022-12-18T09:31:16;-3.10;81.60
24618;DHT22;12762;51.730;5.356;2022-12-18T09:33:45;-3.10;81.60
24618;DHT22;12762;51.730;5.356;2022-12-18T09:36:14;-3.00;81.70
24618;DHT22;12762;51.730;5.356;2022-12-18T09:38:41;-3.00;81.70
24618;DHT22;12762;51.730;5.356;2022-12-18T09:41:32;-2.90;81.80
24618;DHT22;12762;51.730;5.356;2022-12-18T09:44:29;-2.90;81.80
24618;DHT22;12762;51.730;5.356;2022-12-18T09:47:27;-2.80;81.80
24618;DHT22;12762;51.730;5.356;2022-12-18T09:49:58;-2.80;81.80
24618;DHT22;12762;51.730;5.356;2022-12-18T09:52:40;-2.70;81.80
24618;DHT22;12762;51.730;5.356;2022-12-18T09:58:07;-2.60;81.80
24618;DHT22;12762;51.730;5.356;2022-12-18T10:00:38;-2.50;81.90
24618;DHT22;12762;51.730;5.356;2022-12-18T10:03:13;-2.50;81.90
24618;DHT22;12762;51.730;5.356;2022-12-18T10:08:39;-2.30;82.00
24618;DHT22;12762;51.730;5.356;2022-12-18T10:14:28;-2.20;81.90
24618;DHT22;12762;51.730;5.356;2022-12-18T10:17:18;-2.10;81.90
24618;DHT22;12762;51.730;5.356;2022-12-18T10:22:57;-2.00;81.90
24618;DHT22;12762;51.730;5.356;2022-12-18T10:25:39;-2.00;81.90
24618;DHT22;12762;51.730;5.356;2022-12-18T10:28:15;-1.90;81.80
24618;DHT22;12762;51.730;5.356;2022-12-18T10:30:43;-1.90;81.80
24618;DHT22;12762;51.730;5.356;2022-12-18T10:33:22;-1.80;81.80
24618;DHT22;12762;51.730;5.356;2022-12-18T10:35:52;-1.80;81.80
24618;DHT22;12762;51.730;5.356;2022-12-18T10:43:28;-1.70;81.80
24618;DHT22;12762;51.730;5.356;2022-12-18T10:51:07;-1.50;81.90
24618;DHT22;12762;51.730;5.356;2022-12-18T10:53:40;-1.40;81.90
24618;DHT22;12762;51.730;5.356;2022-12-18T10:56:08;-1.40;81.90
24618;DHT22;12762;51.730;5.356;2022-12-18T10:58:37;-1.40;81.80
24618;DHT22;12762;51.730;5.356;2022-12-18T11:01:13;-1.30;81.80
24618;DHT22;12762;51.730;5.356;2022-12-18T11:03:44;-1.30;81.80
24618;DHT22;12762;51.730;5.356;2022-12-18T11:06:22;-1.30;81.70
24618;DHT22;12762;51.730;5.356;2022-12-18T11:09:03;-1.20;81.70
24618;DHT22;12762;51.730;5.356;2022-12-18T11:11:41;-1.20;81.90
24618;DHT22;12762;51.730;5.356;2022-12-18T11:14:26;-1.10;81.90
24618;DHT22;12762;51.730;5.356;2022-12-18T11:16:54;-1.10;81.90
24618;DHT22;12762;51.730;5.356;2022-12-18T11:19:42;-1.10;81.80
24618;DHT22;12762;51.730;5.356;2022-12-18T11:22:20;-1.00;81.90
24618;DHT22;12762;51.730;5.356;2022-12-18T11:25:04;-1.00;81.80
24618;DHT22;12762;51.730;5.356;2022-12-18T11:27:55;-0.90;81.90
24618;DHT22;12762;51.730;5.356;2022-12-18T11:35:30;-0.80;81.80
24618;DHT22;12762;51.730;5.356;2022-12-18T11:38:18;-0.80;81.70
24618;DHT22;12762;51.730;5.356;2022-12-18T11:40:58;-0.70;81.80
24618;DHT22;12762;51.730;5.356;2022-12-18T11:46:40;-0.70;81.70
24618;DHT22;12762;51.730;5.356;2022-12-18T11:49:33;-0.60;81.70
24618;DHT22;12762;51.730;5.356;2022-12-18T11:52:24;-0.60;81.70
24618;DHT22;12762;51.730;5.356;2022-12-18T11:54:56;-0.50;81.80
24618;DHT22;12762;51.730;5.356;2022-12-18T11:57:31;-0.50;81.70
24618;DHT22;12762;51.730;5.356;2022-12-18T12:00:16;-0.40;81.70
24618;DHT22;12762;51.730;5.356;2022-12-18T12:06:10;-0.40;81.70
24618;DHT22;12762;51.730;5.356;2022-12-18T12:08:57;-0.30;81.70
24618;DHT22;12762;51.730;5.356;2022-12-18T12:17:20;-0.20;81.50
24618;DHT22;12762;51.730;5.356;2022-12-18T12:23:04;-0.20;81.40
24618;DHT22;12762;51.730;5.356;2022-12-18T12:28:12;-0.10;81.40
24618;DHT22;12762;51.730;5.356;2022-12-18T12:34:14;-0.10;81.20
24618;DHT22;12762;51.730;5.356;2022-12-18T12:39:35;0.00;81.40
24618;DHT22;12762;51.730;5.356;2022-12-18T12:42:17;0.00;81.40
24618;DHT22;12762;51.730;5.356;2022-12-18T12:45:05;0.00;81.20
24618;DHT22;12762;51.730;5.356;2022-12-18T12:47:38;0.00;81.20
24618;DHT22;12762;51.730;5.356;2022-12-18T12:50:14;0.10;81.20
24618;DHT22;12762;51.730;5.356;2022-12-18T12:52:52;0.10;81.10
24618;DHT22;12762;51.730;5.356;2022-12-18T12:55:26;0.10;80.80
24618;DHT22;12762;51.730;5.356;2022-12-18T12:58:23;0.10;81.00
24618;DHT22;12762;51.730;5.356;2022-12-18T13:01:12;0.10;80.80
24618;DHT22;12762;51.730;5.356;2022-12-18T13:04:00;0.10;80.90
24618;DHT22;12762;51.730;5.356;2022-12-18T13:09:14;0.20;81.10
24618;DHT22;12762;51.730;5.356;2022-12-18T13:11:46;0.20;81.00
24618;DHT22;12762;51.730;5.356;2022-12-18T13:14:36;0.20;81.10
24618;DHT22;12762;51.730;5.356;2022-12-18T13:22:24;0.20;80.90
24618;DHT22;12762;51.730;5.356;2022-12-18T13:24:51;0.20;80.80
24618;DHT22;12762;51.730;5.356;2022-12-18T13:38:35;0.30;80.90
24618;DHT22;12762;51.730;5.356;2022-12-18T13:43:49;0.30;80.80
24618;DHT22;12762;51.730;5.356;2022-12-18T13:46:26;0.30;80.70
24618;DHT22;12762;51.730;5.356;2022-12-18T13:49:21;0.30;80.70
24618;DHT22;12762;51.730;5.356;2022-12-18T13:51:51;0.30;80.70
24618;DHT22;12762;51.730;5.356;2022-12-18T13:57:00;0.40;80.80
24618;DHT22;12762;51.730;5.356;2022-12-18T13:59:34;0.40;80.70
24618;DHT22;12762;51.730;5.356;2022-12-18T14:02:26;0.40;80.70
24618;DHT22;12762;51.730;5.356;2022-12-18T14:04:54;0.40;80.70
24618;DHT22;12762;51.730;5.356;2022-12-18T14:07:24;0.40;80.70
24618;DHT22;12762;51.730;5.356;2022-12-18T14:09:55;0.40;80.70
24618;DHT22;12762;51.730;5.356;2022-12-18T14:12:50;0.40;80.70
24618;DHT22;12762;51.730;5.356;2022-12-18T14:15:40;0.40;80.60
24618;DHT22;12762;51.730;5.356;2022-12-18T14:20:34;0.50;80.60
24618;DHT22;12762;51.730;5.356;2022-12-18T14:23:23;0.40;81.30
24618;DHT22;12762;51.730;5.356;2022-12-18T14:25:51;0.40;80.50
24618;DHT22;12762;51.730;5.356;2022-12-18T14:28:21;0.40;80.50
24618;DHT22;12762;51.730;5.356;2022-12-18T14:30:54;0.40;80.50
24618;DHT22;12762;51.730;5.356;2022-12-18T14:33:26;0.50;80.60
24618;DHT22;12762;51.730;5.356;2022-12-18T14:36:04;0.50;80.50
24618;DHT22;12762;51.730;5.356;2022-12-18T14:38:41;0.50;80.40
24618;DHT22;12762;51.730;5.356;2022-12-18T14:41:13;0.50;80.40
24618;DHT22;12762;51.730;5.356;2022-12-18T14:43:42;0.50;80.30
24618;DHT22;12762;51.730;5.356;2022-12-18T14:46:35;0.50;80.20
24618;DHT22;12762;51.730;5.356;2022-12-18T14:49:31;0.50;80.30
24618;DHT22;12762;51.730;5.356;2022-12-18T14:52:06;0.50;80.30
24618;DHT22;12762;51.730;5.356;2022-12-18T14:54:37;0.50;80.20
24618;DHT22;12762;51.730;5.356;2022-12-18T14:57:21;0.50;80.20
24618;DHT22;12762;51.730;5.356;2022-12-18T14:59:49;0.50;80.20
24618;DHT22;12762;51.730;5.356;2022-12-18T15:02:21;0.50;80.10
24618;DHT22;12762;51.730;5.356;2022-12-18T15:05:16;0.50;80.00
24618;DHT22;12762;51.730;5.356;2022-12-18T15:07:51;0.50;80.90
24618;DHT22;12762;51.730;5.356;2022-12-18T15:10:29;0.50;80.00
24618;DHT22;12762;51.730;5.356;2022-12-18T15:20:55;0.50;79.90
24618;DHT22;12762;51.730;5.356;2022-12-18T15:23:48;0.50;79.90
24618;DHT22;12762;51.730;5.356;2022-12-18T15:26:18;0.50;79.90
24618;DHT22;12762;51.730;5.356;2022-12-18T15:36:21;0.50;79.70
24618;DHT22;12762;51.730;5.356;2022-12-18T15:38:54;0.50;79.90
24618;DHT22;12762;51.730;5.356;2022-12-18T15:41:34;0.50;79.60
24618;DHT22;12762;51.730;5.356;2022-12-18T15:44:03;0.50;79.60
24618;DHT22;12762;51.730;5.356;2022-12-18T15:46:30;0.50;79.60
24618;DHT22;12762;51.730;5.356;2022-12-18T15:49:02;0.50;79.60
24618;DHT22;12762;51.730;5.356;2022-12-18T15:51:29;0.50;79.60
24618;DHT22;12762;51.730;5.356;2022-12-18T15:54:00;0.50;80.40
24618;DHT22;12762;51.730;5.356;2022-12-18T15:56:28;0.50;79.50
24618;DHT22;12762;51.730;5.356;2022-12-18T15:59:18;0.50;79.50
24618;DHT22;12762;51.730;5.356;2022-12-18T16:01:48;0.50;79.50
24618;DHT22;12762;51.730;5.356;2022-12-18T16:04:18;0.60;79.50
24618;DHT22;12762;51.730;5.356;2022-12-18T16:06:47;0.60;79.60
24618;DHT22;12762;51.730;5.356;2022-12-18T16:09:36;0.60;79.50
24618;DHT22;12762;51.730;5.356;2022-12-18T16:12:03;0.60;79.30
24618;DHT22;12762;51.730;5.356;2022-12-18T16:14:31;0.60;79.40
24618;DHT22;12762;51.730;5.356;2022-12-18T16:17:03;0.60;79.40
24618;DHT22;12762;51.730;5.356;2022-12-18T16:19:38;0.60;79.40
24618;DHT22;12762;51.730;5.356;2022-12-18T16:22:16;0.60;79.40
24618;DHT22;12762;51.730;5.356;2022-12-18T16:24:48;0.60;79.10
24618;DHT22;12762;51.730;5.356;2022-12-18T16:27:15;0.60;79.30
24618;DHT22;12762;51.730;5.356;2022-12-18T16:29:42;0.60;79.00
24618;DHT22;12762;51.730;5.356;2022-12-18T16:32:13;0.60;79.10
24618;DHT22;12762;51.730;5.356;2022-12-18T16:34:41;0.60;79.10
24618;DHT22;12762;51.730;5.356;2022-12-18T16:37:10;0.60;79.20
24618;DHT22;12762;51.730;5.356;2022-12-18T16:39:38;0.70;79.40
24618;DHT22;12762;51.730;5.356;2022-12-18T16:42:17;0.70;79.20
24618;DHT22;12762;51.730;5.356;2022-12-18T16:44:47;0.70;79.10
24618;DHT22;12762;51.730;5.356;2022-12-18T16:47:16;0.70;79.10
24618;DHT22;12762;51.730;5.356;2022-12-18T16:49:46;0.70;79.10
24618;DHT22;12762;51.730;5.356;2022-12-18T16:52:15;0.70;79.00
24618;DHT22;12762;51.730;5.356;2022-12-18T16:54:43;0.70;79.10
24618;DHT22;12762;51.730;5.356;2022-12-18T16:57:16;0.70;79.10
24618;DHT22;12762;51.730;5.356;2022-12-18T16:59:44;0.70;79.90
24618;DHT22;12762;51.730;5.356;2022-12-18T17:02:20;0.80;79.20
24618;DHT22;12762;51.730;5.356;2022-12-18T17:04:53;0.80;79.10
24618;DHT22;12762;51.730;5.356;2022-12-18T17:07:20;0.80;79.00
24618;DHT22;12762;51.730;5.356;2022-12-18T17:09:47;0.80;79.00
24618;DHT22;12762;51.730;5.356;2022-12-18T17:12:16;0.80;78.90
24618;DHT22;12762;51.730;5.356;2022-12-18T17:14:43;0.80;78.90
24618;DHT22;12762;51.730;5.356;2022-12-18T17:17:10;0.80;78.90
24618;DHT22;12762;51.730;5.356;2022-12-18T17:19:47;0.90;79.00
24618;DHT22;12762;51.730;5.356;2022-12-18T17:22:13;0.90;79.00
24618;DHT22;12762;51.730;5.356;2022-12-18T17:24:40;0.90;78.90
24618;DHT22;12762;51.730;5.356;2022-12-18T17:27:13;0.90;78.80
24618;DHT22;12762;51.730;5.356;2022-12-18T17:29:40;0.90;78.90
24618;DHT22;12762;51.730;5.356;2022-12-18T17:32:13;0.90;79.60
24618;DHT22;12762;51.730;5.356;2022-12-18T17:34:40;1.00;78.70
24618;DHT22;12762;51.730;5.356;2022-12-18T17:37:07;1.00;78.50
24618;DHT22;12762;51.730;5.356;2022-12-18T17:39:34;1.00;78.70
24618;DHT22;12762;51.730;5.356;2022-12-18T17:42:01;1.00;78.60
24618;DHT22;12762;51.730;5.356;2022-12-18T17:44:30;1.00;78.60
24618;DHT22;12762;51.730;5.356;2022-12-18T17:46:57;1.00;78.60
24618;DHT22;12762;51.730;5.356;2022-12-18T17:49:24;1.00;78.50
24618;DHT22;12762;51.730;5.356;2022-12-18T17:51:51;1.00;78.40
24618;DHT22;12762;51.730;5.356;2022-12-18T17:54:17;1.00;78.50
24618;DHT22;12762;51.730;5.356;2022-12-18T17:56:45;1.00;78.40
24618;DHT22;12762;51.730;5.356;2022-12-18T17:59:11;1.00;78.40
24618;DHT22;12762;51.730;5.356;2022-12-18T18:01:38;1.00;78.20
24618;DHT22;12762;51.730;5.356;2022-12-18T18:04:11;1.00;78.30